Nearby METAR Reports

 

KSJC - San Jose, California, USA
Distance from station: NE 14km
Actualización: 28/02/2020 11:53
Despejado
Despejado
 Viento del calm
Viento: Calma
Temperatura: 14°C
Rocío: 7°C
Humedad: 63%
Barómetro: 1020 hPa
Clouds: Despejado
Visibilidad: 16 km
2020/02/28 10:53 KSJC 281053Z AUTO 00000KT 10SM CLR 14/07 A3012 RMK AO2 SLP198 T01390067
KNUQ - Moffett Nas/Mtn, California, USA
Distance from station: N 14km
Actualización: 21/11/2019 17:56
NOT Current

 
Barómetro: 1011.2 hPa
2019/11/21 16:56 KNUQ 211656Z AUTO A2986 RMK AO2 SLP116 PWINO $
 
KPAO - Palo Alto, California, USA
Distance from station: NNO 23km
Actualización: 28/02/2020 05:47
NOT Current
Despejado
Despejado
 Viento del calm
Viento: Calma
Temperatura: 14°C
Rocío: 11°C
Humedad: 82%
Barómetro: 1021 hPa
Clouds: Despejado
Visibilidad: 16 km
2020/02/28 04:47 KPAO 280447Z 00000KT 10SM SKC 14/11 A3015
KRHV - San Jose/Reid, California, USA
Distance from station: ENE 19km
Actualización: 28/02/2020 06:55
NOT Current
Muy nuboso
Muy nuboso
 Viento del varies
Viento: varies 7 km/h
Temperatura: 16°C
Rocío: 8°C
Humedad: 59%
Barómetro: 1021.3 hPa
Clouds: Muy nuboso
Visibilidad: 16 km
Cloud details: Muy nuboso 4572 m
2020/02/28 05:55 KRHV 280555Z VRB04KT 10SM BKN150 16/08 A3016 RMK LAST
 
KOAK - Oakland, California, USA
Distance from station: NNO 50km
Actualización: 28/02/2020 11:53
Muy nuboso
Muy nuboso
 Viento del calm
Viento: Calma
Temperatura: 13°C
Rocío: 9°C
Humedad: 77%
Barómetro: 1020 hPa
Clouds: Muy nuboso
Visibilidad: 16 km
Cloud details: Muy nuboso 6096 m
2020/02/28 10:53 KOAK 281053Z 00000KT 10SM BKN200 13/09 A3012 RMK AO2 SLP199 T01280089
KSQL - San Carlos Airpo, California, USA
Distance from station: NO 34km
Actualización: 28/02/2020 12:15
Despejado
Despejado
 Viento del calm
Viento: Calma
Temperatura: 13°C
Rocío: 8°C
Humedad: 72%
Barómetro: 1020 hPa
Clouds: Despejado
Visibilidad: 16 km
2020/02/28 11:15 KSQL 281115Z AUTO 00000KT 10SM CLR 13/08 A3012 RMK AO2
 
KSFO - San Francisco, California, USA
Distance from station: NO 49km
Actualización: 28/02/2020 11:56
Parcialmente nuboso
Parcialmente nuboso
 Viento del calm
Viento: Calma
Temperatura: 13°C
Rocío: 8°C
Humedad: 72%
Barómetro: 1020 hPa
Clouds: Parcialmente nuboso
Visibilidad: 14 km
Cloud details: Parcialmente nuboso 6096 m
2020/02/28 10:56 KSFO 281056Z 00000KT 9SM SCT200 13/08 A3012 RMK AO2 SLP198 T01280083 $
KE16 - San Martin, California, USA
Distance from station: ESE 43km
Actualización: 14/11/2019 10:35
NOT Current
Cubierto
Cubierto
 Viento del SE
Viento: SE 11 km/h
Temperatura: 12°C
Rocío: 10°C
Humedad: 88%
Barómetro: 1017.6 hPa
Clouds: Cubierto
Visibilidad: 16 km
Cloud details: Cubierto 427 m
2019/11/14 09:35 KE16 140935Z AUTO 13006KT 10SM OVC014 12/10 A3005 RMK AO2
 
KWVI - Watsonville, California, USA
Distance from station: SSE 44km
Actualización: 28/02/2020 11:53
Despejado
Despejado
 Viento del NNO
Viento: NNO 6 km/h
Temperatura: 12°C
Rocío: 7°C
Humedad: 72%
Barómetro: 1020 hPa
Clouds: Despejado
Visibilidad: 16 km
2020/02/28 10:53 KWVI 281053Z AUTO 34003KT 10SM CLR 12/07 A3012 RMK AO2 SLP198 T01170072 $
KHAF - Half Moon Bay, California, USA
Distance from station: ONO 50km
Actualización: 22/02/2020 19:00
NOT Current

 
2020/02/22 18:00 KHAF 221800Z AUTO RMK AO2 PWINO
 
KHWD - Hayward, California, USA
Distance from station: N 44km
Actualización: 28/02/2020 11:54
Despejado
Despejado
 Viento del calm
Viento: Calma
Temperatura: 13°C
Rocío: 7°C
Humedad: 67%
Barómetro: 1019.6 hPa
Clouds: Despejado
Visibilidad: 16 km
2020/02/28 10:54 KHWD 281054Z 00000KT 10SM CLR 13/07 A3011 RMK AO2 SLP205 T01330067
KLVK - Livermore, California, USA
Distance from station: NNE 51km
Actualización: 28/02/2020 11:53
Despejado
Despejado
 Viento del calm
Viento: Calma
Temperatura: 10°C
Rocío: 6°C
Humedad: 76%
Barómetro: 1020.3 hPa
Clouds: Despejado
Visibilidad: 16 km
2020/02/28 10:53 KLVK 281053Z AUTO 00000KT 10SM CLR 10/06 A3013 RMK AO2 SLP198 T01000056